Foster City, MI (49834)

1:03 AM CDT on July 29, 2014 (GMT -0500)
KMINORWA2 Elev 1010 ft | 45.81 °N, 87.92 °W | Change Station

Current weather conditions updated 1 minute ago

Mostly Cloudy
Mostly Cloudy
57.7 °F
Feels Like 57.7 °F
N
2.0
Wind Variable Wind from NNW
Gusts 2.0 mph

Today is forecast to be nearly the same temperature as yesterday. Scattered thunderstorms possible.

Today
High -- | Low -- °F
--% Chance of Precip.
Yesterday
High -- | Low -- °F
Precip. -- in
5:29 AM 8:24 PM
Waxing Crescent, 5% visible
Pressure 29.99 in
Visibility 10.0 miles
Clouds Mostly Cloudy 10000 ft
Dew Point 54 °F
Humidity 88%
Rainfall 0.00 in
Snow Depth Not available.
UV 0 out of 12
Pollen 7.90 out of 12
Air Quality Not available.
Flu Activity Not available.
METAR KIMT 290554Z AUTO 29005KT 10SM BKN100 15/12 A2999 RMK AO2 SLP156 T01500117 10200 20139 402280072 56009

More Conditions Fewer Conditions

Pressure 29.99 in
Visibility 10.0 miles
Clouds Mostly Cloudy 10000 ft
Dew Point 54 °F
Humidity 88%
Rainfall 0.00 in
Snow Depth Not available.
UV 0 out of 12
Pollen 7.90 out of 12
Air Quality Not available.
Flu Activity Not available.
METAR KIMT 290554Z AUTO 29005KT 10SM BKN100 15/12 A2999 RMK AO2 SLP156 T01500117 10200 20139 402280072 56009

More Conditions Fewer Conditions

10-Day Weather Forecast

Almanac

Astronomy

Jul. 29, 2014 Rise Set
Actual Time 5:29 AM CDT 8:24 PM CDT
Civil Twilight 4:54 AM CDT 8:59 PM CDT
Nautical Twilight 4:09 AM CDT 9:44 PM CDT
Astronomical Twilight 3:16 AM CDT 10:37 PM CDT
Moon 8:17 AM CDT 9:23 PM CDT
Length of Visible Light 16h 04m
Length of Day
14h 54m
Tomorrow will be 2m 26s shorter.
Waxing Crescent, 5% of the Moon is Illuminated
Today
Waxing Crescent
Aug 3
First Quarter
Aug 10
Full
Aug 17
Last Quarter
Aug 25
New

Today's Extremes

State Highs State Lows

Community

WunderPhotos

Upload Photos

1,738,642 photos uploaded!

Nearby

Snow Depth

Station Depth Elevation
No new snow has been reported.

Earthquake Activity

City Distance Mag. Time & Date
No recent earthquake activity has been reported nearby.
Minimum magnitude displayed is 2.5.

Coastal Water Temperatures

Place Temperature
No Stations Reporting

Nearby Weather Stations

Station Location Temp. Dew Point Humidity Wind Precip. Elev Updated Type
MesoWest Republic ESS , Republic, MI 53 °F 53 °F 99% North  at  0 mph 0.00 in / hr 1443 ft 12:35 AM EDT MADIS
Norway, MI 57.7 °F 54 °F 88% NNW  at  2.0 mph 0.00 in / hr 1010 ft 1:01 AM CDT Normal
Downtown, Norway, MI 62.1 °F 55 °F 78% NW  at  9.2 mph 0.00 in / hr 942 ft 1:03 AM CDT Rapid Fire
Spread Eagle Skies, Florence, WI 58.8 °F 55 °F 87% West  at  0.0 mph 0.00 in / hr 1224 ft 1:03 AM CDT Rapid Fire
Green Creek, Ishpeming, MI 55.4 °F 40 °F 56% WNW  at  2.2 mph 0.00 in / hr 1450 ft 2:03 AM EDT Rapid Fire

Show More Stations Show Fewer Stations